Time;durP1;ratioP1;P1;durP2;ratioP2;P2;SDS_P1;SDS_P2;PMS_P1;PMS_P2;Temp;Humidity;BMP_temperature;BMP_pressure;BME280_temperature;BME280_humidity;BME280_pressure;Samples;Min_cycle;Max_cycle;Signal;HPM_P1;HPM_P2
2023/09/11 05:48:12;;;;;;;12.65;9.57;;;;;;;;;;10510632;28;20495;-86
2023/09/11 05:53:13;;;;;;;12.70;9.00;;;;;;;;;;10508976;28;20033;-85
2023/09/11 05:58:15;;;;;;;11.35;9.52;;;;;;;;;;10526037;28;20021;-82
2023/09/11 06:03:16;;;;;;;10.55;8.52;;;;;;;;;;10528185;28;20043;-83
2023/09/11 06:08:17;;;;;;;10.63;8.55;;;;;;;;;;10507403;28;20035;-83
2023/09/11 06:13:18;;;;;;;12.32;8.30;;;;;;;;;;10503995;28;20033;-83
2023/09/11 06:18:19;;;;;;;10.50;8.15;;;;;;;;;;10501092;28;20090;-83
2023/09/11 06:23:20;;;;;;;9.40;7.93;;;;;;;;;;10499437;28;20077;-83
2023/09/11 06:28:21;;;;;;;11.63;7.68;;;;;;;;;;10499279;28;20440;-83
2023/09/11 06:33:22;;;;;;;11.48;8.80;;;;;;;;;;10502364;28;20056;-83
2023/09/11 06:38:24;;;;;;;7.63;6.88;;;;;;;;;;10499994;28;20027;-83
2023/09/11 06:43:25;;;;;;;11.27;8.07;;;;;;;;;;10497891;28;20108;-82
2023/09/11 06:48:26;;;;;;;13.32;9.32;;;;;;;;;;10502331;28;20035;-83
2023/09/11 06:53:28;;;;;;;10.98;8.00;;;;;;;;;;10501130;28;20043;-83
2023/09/11 06:58:29;;;;;;;9.65;7.97;;;;;;;;;;10489241;28;20104;-83
2023/09/11 07:03:30;;;;;;;9.63;7.00;;;;;;;;;;10480905;28;20032;-84
2023/09/11 07:08:31;;;;;;;11.43;7.82;;;;;;;;;;10470530;28;20064;-81
2023/09/11 07:13:32;;;;;;;10.02;6.93;;;;;;;;;;10474608;28;20481;-82
2023/09/11 07:18:33;;;;;;;12.02;7.50;;;;;;;;;;10470746;28;20027;-80
2023/09/11 07:23:34;;;;;;;13.90;7.57;;;;;;;;;;10464473;28;20119;-80
2023/09/11 07:29:07;;;;;;;13.60;7.47;;;;;;;;;;10466977;28;20124;-80
2023/09/11 07:34:08;;;;;;;16.77;8.63;;;;;;;;;;10454977;28;20411;-80
2023/09/11 07:39:09;;;;;;;13.25;7.88;;;;;;;;;;10466331;28;20028;-80
2023/09/11 07:44:10;;;;;;;9.75;6.75;;;;;;;;;;10465886;28;20404;-80
2023/09/11 07:49:11;;;;;;;10.90;7.45;;;;;;;;;;10467153;28;20032;-81
2023/09/11 07:54:14;;;;;;;12.50;9.48;;;;;;;;;;10468223;28;20396;-80
2023/09/11 07:59:15;;;;;;;11.30;7.07;;;;;;;;;;10465900;28;20025;-79
2023/09/11 08:04:16;;;;;;;10.60;7.55;;;;;;;;;;10467775;28;20087;-80
2023/09/11 08:09:17;;;;;;;15.73;8.13;;;;;;;;;;10464990;28;20064;-81
2023/09/11 08:14:21;;;;;;;14.35;8.73;;;;;;;;;;10465773;28;20053;-81
2023/09/11 08:19:22;;;;;;;12.82;9.68;;;;;;;;;;10465079;28;20043;-81
2023/09/11 08:24:23;;;;;;;10.40;7.63;;;;;;;;;;10465649;28;20031;-81
2023/09/11 08:29:25;;;;;;;12.30;8.10;;;;;;;;;;10464275;28;20029;-81
2023/09/11 08:34:27;;;;;;;13.30;8.60;;;;;;;;;;10468419;28;20048;-83
2023/09/11 08:39:28;;;;;;;15.30;8.23;;;;;;;;;;10466791;28;20104;-82
2023/09/11 08:44:29;;;;;;;12.18;7.45;;;;;;;;;;10463731;28;20206;-83
2023/09/11 08:49:41;;;;;;;15.63;7.50;;;;;;;;;;10467820;28;20052;-84
2023/09/11 08:54:43;;;;;;;11.40;7.93;;;;;;;;;;10463166;28;20123;-83
2023/09/11 09:00:09;;;;;;;11.77;8.63;;;;;;;;;;10462838;28;20508;-84
2023/09/11 09:05:49;;;;;;;14.98;7.38;;;;;;;;;;10466852;28;20071;-83
2023/09/11 09:11:13;;;;;;;9.50;6.88;;;;;;;;;;10461845;28;20554;-84
2023/09/11 09:16:14;;;;;;;11.20;6.18;;;;;;;;;;10443677;28;20037;-83
2023/09/11 09:21:19;;;;;;;14.75;7.45;;;;;;;;;;10438921;28;20033;-85
2023/09/11 09:26:23;;;;;;;10.05;6.80;;;;;;;;;;10461689;28;20104;-83
2023/09/11 09:31:25;;;;;;;10.82;7.20;;;;;;;;;;10463697;28;20080;-84
2023/09/11 09:36:26;;;;;;;13.30;7.13;;;;;;;;;;10466679;28;20052;-83
2023/09/11 09:41:27;;;;;;;12.23;6.18;;;;;;;;;;10465199;28;20028;-84
2023/09/11 09:46:28;;;;;;;9.63;6.65;;;;;;;;;;10465428;28;20136;-82
2023/09/11 09:51:30;;;;;;;14.27;7.10;;;;;;;;;;10464859;28;20029;-82
2023/09/11 09:56:31;;;;;;;10.82;6.40;;;;;;;;;;10465801;28;20036;-83
2023/09/11 10:01:43;;;;;;;12.13;7.70;;;;;;;;;;10461068;28;20032;-83
2023/09/11 10:06:53;;;;;;;14.45;8.43;;;;;;;;;;10461163;28;20025;-82
2023/09/11 10:11:54;;;;;;;11.60;6.30;;;;;;;;;;10461839;28;20085;-83
2023/09/11 10:16:57;;;;;;;12.93;7.15;;;;;;;;;;10462223;28;20029;-83
2023/09/11 10:21:58;;;;;;;9.73;6.90;;;;;;;;;;10461612;28;20046;-83
2023/09/11 10:27:01;;;;;;;12.30;6.53;;;;;;;;;;10461227;28;20021;-81
2023/09/11 10:32:07;;;;;;;10.40;6.85;;;;;;;;;;10466228;28;20116;-82
2023/09/11 10:37:08;;;;;;;12.30;7.30;;;;;;;;;;10471181;28;20025;-84
2023/09/11 10:42:09;;;;;;;11.43;6.60;;;;;;;;;;10472420;28;20025;-82
2023/09/11 10:47:11;;;;;;;11.10;7.80;;;;;;;;;;10494015;28;20036;-82
2023/09/11 10:52:12;;;;;;;14.48;7.32;;;;;;;;;;10475668;28;20032;-81
2023/09/11 10:57:13;;;;;;;11.05;6.78;;;;;;;;;;10467296;28;20123;-82
2023/09/11 11:02:14;;;;;;;13.10;6.72;;;;;;;;;;10495871;28;20051;-81
2023/09/11 11:07:16;;;;;;;11.23;6.22;;;;;;;;;;10469689;28;20025;-80
2023/09/11 11:12:31;;;;;;;13.93;6.10;;;;;;;;;;10473764;28;20086;-79
2023/09/11 11:17:38;;;;;;;11.82;6.78;;;;;;;;;;10473498;28;20068;-80
2023/09/11 11:22:40;;;;;;;11.85;6.90;;;;;;;;;;10475808;28;20025;-82
2023/09/11 11:27:44;;;;;;;10.07;7.03;;;;;;;;;;10486198;28;20021;-81
2023/09/11 11:32:46;;;;;;;11.75;6.30;;;;;;;;;;10482732;28;20021;-81
2023/09/11 11:37:49;;;;;;;12.73;6.55;;;;;;;;;;10467025;28;20141;-81
2023/09/11 11:42:50;;;;;;;8.90;6.03;;;;;;;;;;10465695;28;20045;-81
2023/09/11 11:47:51;;;;;;;9.35;5.80;;;;;;;;;;10470806;28;20029;-82
2023/09/11 11:52:56;;;;;;;12.65;6.10;;;;;;;;;;10472495;28;20018;-81
2023/09/11 11:58:12;;;;;;;8.52;5.85;;;;;;;;;;10451785;22;20050;-86
2023/09/11 12:04:13;;;;;;;13.35;7.03;;;;;;;;;;10379385;28;20094;-86
2023/09/11 12:10:03;;;;;;;10.63;7.18;;;;;;;;;;10382811;28;20481;-86
2023/09/11 12:15:39;;;;;;;10.00;6.38;;;;;;;;;;10384092;28;20030;-86
2023/09/11 13:07:00;;;;;;;12.27;9.07;;;;;;;;;;10382027;28;20468;-86
2023/09/11 13:12:03;;;;;;;13.73;8.43;;;;;;;;;;10382728;28;20045;-86
2023/09/11 13:17:05;;;;;;;12.20;8.23;;;;;;;;;;10396687;28;20026;-85
2023/09/11 13:22:30;;;;;;;8.63;7.55;;;;;;;;;;10385109;28;20181;-86
2023/09/11 13:27:37;;;;;;;9.70;7.65;;;;;;;;;;10383465;28;20384;-85
2023/09/11 13:32:43;;;;;;;14.13;9.13;;;;;;;;;;10380429;28;20105;-85
2023/09/11 13:37:44;;;;;;;15.45;10.10;;;;;;;;;;10379154;28;20026;-85
2023/09/11 13:42:45;;;;;;;10.77;8.70;;;;;;;;;;10378919;28;20072;-85
2023/09/11 13:48:01;;;;;;;15.13;9.85;;;;;;;;;;10375723;28;20033;-87
2023/09/11 13:53:05;;;;;;;12.98;11.00;;;;;;;;;;10390245;28;20022;-84
2023/09/11 13:58:27;;;;;;;12.95;8.80;;;;;;;;;;10383858;28;20062;-85
2023/09/11 14:03:30;;;;;;;13.85;9.70;;;;;;;;;;10383963;28;20037;-85
2023/09/11 14:08:36;;;;;;;11.45;8.80;;;;;;;;;;10390600;28;20089;-84
2023/09/11 14:13:41;;;;;;;20.45;15.18;;;;;;;;;;10390797;28;20038;-84
2023/09/11 14:18:47;;;;;;;10.68;8.23;;;;;;;;;;10388057;28;20030;-85
2023/09/11 14:23:50;;;;;;;10.05;7.20;;;;;;;;;;10390121;28;20037;-85
2023/09/11 14:28:52;;;;;;;13.57;9.88;;;;;;;;;;10389614;28;20022;-84
2023/09/11 14:34:02;;;;;;;11.95;9.75;;;;;;;;;;10390128;28;20045;-85
2023/09/11 14:39:23;;;;;;;13.35;8.43;;;;;;;;;;10378801;28;20038;-85
2023/09/11 14:44:25;;;;;;;13.77;7.93;;;;;;;;;;10390689;28;20101;-85
2023/09/11 14:49:26;;;;;;;9.60;8.57;;;;;;;;;;10386870;28;20026;-85
2023/09/11 14:54:27;;;;;;;14.20;8.27;;;;;;;;;;10398501;28;20030;-85
2023/09/11 14:59:29;;;;;;;9.23;7.22;;;;;;;;;;10386419;28;20065;-85
2023/09/11 15:05:00;;;;;;;8.32;7.25;;;;;;;;;;10384603;28;20137;-85
2023/09/11 15:10:17;;;;;;;11.18;8.07;;;;;;;;;;10395840;28;20057;-85
2023/09/11 15:15:29;;;;;;;13.07;9.13;;;;;;;;;;10390429;28;20080;-86
2023/09/11 15:20:30;;;;;;;11.15;7.60;;;;;;;;;;10372640;28;20025;-85
2023/09/11 15:25:43;;;;;;;9.95;7.10;;;;;;;;;;10382680;28;20037;-85
2023/09/11 15:31:18;;;;;;;13.65;7.45;;;;;;;;;;10382095;28;20029;-85
2023/09/11 15:42:30;;;;;;;8.30;7.50;;;;;;;;;;10381866;28;20026;-87
2023/09/11 15:47:37;;;;;;;10.85;7.68;;;;;;;;;;10384826;28;20040;-86
2023/09/11 15:52:59;;;;;;;11.20;7.90;;;;;;;;;;10380901;28;20076;-86
2023/09/11 15:58:33;;;;;;;11.70;7.70;;;;;;;;;;10383732;28;20033;-86
2023/09/11 16:03:49;;;;;;;11.02;8.18;;;;;;;;;;10388072;28;20079;-85
2023/09/11 16:09:19;;;;;;;9.82;7.43;;;;;;;;;;10401793;28;20038;-85
2023/09/11 16:32:22;;;;;;;9.40;7.90;;;;;;;;;;10370478;28;20041;-87
